Time;durP1;ratioP1;P1;durP2;ratioP2;P2;SDS_P1;SDS_P2;PMS_P1;PMS_P2;Temp;Humidity;BMP_temperature;BMP_pressure;BME280_temperature;BME280_humidity;BME280_pressure;Samples;Min_cycle;Max_cycle;Signal;HPM_P1;HPM_P2
2023/05/01 00:00:36;;;;;;;12.30;5.70;;;;;;;3.00;70.89;101184.54;105258;1257;69889;-47
2023/05/01 00:03:16;;;;;;;11.60;5.80;;;;;;;2.95;71.14;101181.58;105218;1260;69983;-47
2023/05/01 00:05:45;;;;;;;20.90;8.40;;;;;;;2.92;71.18;101182.05;105268;1257;73981;-47
2023/05/01 00:08:13;;;;;;;17.60;8.00;;;;;;;2.87;71.19;101175.63;105267;1257;82452;-49
2023/05/01 00:10:41;;;;;;;16.30;6.90;;;;;;;2.84;71.64;101173.20;105237;1258;73861;-47
2023/05/01 00:13:10;;;;;;;15.50;6.50;;;;;;;2.81;71.79;101173.02;105171;1260;70026;-47
2023/05/01 00:15:40;;;;;;;14.40;6.60;;;;;;;2.78;71.68;101174.04;105225;1255;70008;-47
2023/05/01 00:18:08;;;;;;;;;;;;;;;2.76;72.21;101172.98;105257;1260;74277;-46
2023/05/01 00:20:37;;;;;;;14.30;6.80;;;;;;;2.74;72.26;101173.48;105189;1256;83468;-47
2023/05/01 00:23:05;;;;;;;14.60;7.20;;;;;;;2.73;72.44;101179.68;105181;1256;73864;-47
2023/05/01 00:25:34;;;;;;;14.50;7.10;;;;;;;2.72;72.51;101173.64;105242;1256;69997;-48
2023/05/01 00:28:02;;;;;;;13.40;6.70;;;;;;;2.70;72.50;101176.55;105175;1257;69971;-47
2023/05/01 00:30:34;;;;;;;17.10;6.10;;;;;;;2.67;72.45;101177.39;105194;1257;74560;-47
2023/05/01 00:33:02;;;;;;;19.80;7.40;;;;;;;2.61;72.35;101173.55;105254;1256;82400;-47
2023/05/01 00:35:31;;;;;;;23.10;8.90;;;;;;;2.59;72.75;101171.64;105181;1260;72817;-46
2023/05/01 00:37:59;;;;;;;18.40;7.50;;;;;;;2.60;72.65;101167.16;105201;1256;69995;-47
2023/05/01 00:40:27;;;;;;;16.90;7.10;;;;;;;2.54;72.45;101167.12;105128;1256;70046;-47
2023/05/01 00:42:56;;;;;;;13.50;7.30;;;;;;;2.50;72.54;101167.94;105254;1256;75027;-47
2023/05/01 00:45:24;;;;;;;21.20;6.40;;;;;;;2.47;72.82;101164.12;105249;1257;83558;-48
2023/05/01 00:47:53;;;;;;;15.60;6.90;;;;;;;2.44;72.87;101166.52;105162;1256;73712;-48
2023/05/01 00:50:21;;;;;;;14.00;6.00;;;;;;;2.40;72.94;101169.24;105244;1258;70016;-48
2023/05/01 00:52:49;;;;;;;9.90;5.70;;;;;;;2.39;72.85;101168.38;105167;1256;69909;-47
2023/05/01 00:55:18;;;;;;;14.40;6.40;;;;;;;2.38;73.28;101163.52;105242;1256;73698;-48
2023/05/01 00:57:46;;;;;;;12.80;5.90;;;;;;;2.37;73.23;101164.55;105241;1257;83124;-46
2023/05/01 01:00:15;;;;;;;13.10;6.20;;;;;;;2.35;73.38;101162.98;105209;1260;73670;-47
2023/05/01 01:02:45;;;;;;;20.30;7.20;;;;;;;2.31;73.29;101159.67;105168;1257;69840;-47
2023/05/01 01:05:15;;;;;;;14.50;7.00;;;;;;;2.30;73.35;101158.80;105148;1257;69879;-47
2023/05/01 01:08:04;;;;;;;17.40;6.90;;;;;;;2.26;73.51;101160.33;105227;1256;75359;-47
2023/05/01 01:10:53;;;;;;;21.90;8.40;;;;;;;2.22;73.65;101160.63;105187;1256;83968;-47
2023/05/01 01:13:29;;;;;;;23.10;9.90;;;;;;;2.19;73.57;101165.08;105176;1260;72089;-46
2023/05/01 01:16:33;;;;;;;21.00;10.00;;;;;;;2.16;73.53;101160.21;105102;1260;70399;-47
2023/05/01 01:19:11;;;;;;;22.10;10.80;;;;;;;2.12;73.64;101158.27;105131;1261;70079;-47
2023/05/01 01:21:46;;;;;;;21.40;10.10;;;;;;;2.10;73.55;101158.79;105185;1257;74602;-46
2023/05/01 01:24:52;;;;;;;23.90;8.50;;;;;;;2.07;73.68;101157.37;105056;1262;82484;-46
2023/05/01 01:27:44;;;;;;;15.30;8.10;;;;;;;2.05;73.82;101158.05;105123;1256;73708;-46
2023/05/01 01:30:17;;;;;;;16.20;7.40;;;;;;;2.06;74.17;101154.79;105099;1262;70015;-47
2023/05/01 01:33:19;;;;;;;13.80;7.50;;;;;;;2.04;73.93;101153.73;105206;1256;69892;-47
2023/05/01 01:35:57;;;;;;;14.70;6.60;;;;;;;2.03;74.48;101146.81;105216;1256;73928;-47
2023/05/01 01:38:39;;;;;;;10.50;6.70;;;;;;;2.05;74.62;101145.81;105114;1256;83377;-47
2023/05/01 01:41:20;;;;;;;10.50;6.00;;;;;;;2.04;74.45;101141.83;104951;1260;72935;-48
2023/05/01 01:44:00;;;;;;;14.90;6.30;;;;;;;2.00;74.41;101139.90;105134;1260;69948;-47
2023/05/01 01:46:35;;;;;;;13.30;6.30;;;;;;;2.01;74.62;101133.52;105151;1256;70348;-47
2023/05/01 01:49:07;;;;;;;11.20;6.70;;;;;;;2.00;74.45;101136.80;105104;1257;74943;-47
2023/05/01 01:51:36;;;;;;;11.30;6.50;;;;;;;1.97;74.52;101130.06;105109;1262;83529;-47
2023/05/01 01:54:05;;;;;;;12.70;5.70;;;;;;;1.99;74.81;101129.20;105123;1259;73890;-47
2023/05/01 01:56:36;;;;;;;11.90;6.00;;;;;;;2.00;74.97;101127.67;105043;1264;70464;-47
2023/05/01 01:59:06;;;;;;;8.20;4.90;;;;;;;1.99;74.81;101127.83;105075;1257;69903;-47
2023/05/01 02:01:36;;;;;;;10.50;5.00;;;;;;;1.96;74.93;101127.11;105148;1257;75206;-46
2023/05/01 02:04:04;;;;;;;11.10;4.70;;;;;;;1.95;74.86;101126.92;105202;1258;82518;-47
2023/05/01 02:06:34;;;;;;;9.50;5.40;;;;;;;1.92;74.78;101127.07;105177;1259;73745;-47
2023/05/01 02:09:05;;;;;;;7.60;4.60;;;;;;;1.89;74.72;101131.35;105185;1260;69889;-45
2023/05/01 02:11:36;;;;;;;10.30;5.00;;;;;;;1.85;74.71;101125.61;105202;1256;69980;-46
2023/05/01 02:14:05;;;;;;;9.50;4.70;;;;;;;1.84;74.82;101123.19;105116;1262;74249;-47
2023/05/01 02:16:34;;;;;;;11.40;5.40;;;;;;;1.85;75.03;101119.40;105127;1257;82567;-45
2023/05/01 02:19:03;;;;;;;9.00;5.30;;;;;;;1.84;74.94;101115.96;105046;1260;73647;-46
2023/05/01 02:21:33;;;;;;;11.00;6.40;;;;;;;1.83;75.18;101115.08;105079;1257;70007;-46
2023/05/01 02:24:02;;;;;;;12.20;5.90;;;;;;;1.84;75.21;101111.98;105141;1257;70425;-46
2023/05/01 02:26:58;;;;;;;8.70;5.80;;;;;;;1.82;75.16;101109.21;105230;1256;74884;-47
2023/05/01 02:29:27;;;;;;;10.90;5.70;;;;;;;1.77;75.10;101113.48;105149;1257;83392;-47
2023/05/01 02:31:55;;;;;;;12.00;6.10;;;;;;;1.76;75.21;101112.08;105067;1258;73069;-46
2023/05/01 02:34:24;;;;;;;10.90;6.20;;;;;;;1.76;75.44;101111.56;105124;1257;69912;-46
2023/05/01 02:36:53;;;;;;;16.70;6.80;;;;;;;1.79;75.64;101105.55;105281;1257;69992;-46
2023/05/01 02:39:21;;;;;;;12.40;6.80;;;;;;;1.84;75.99;101104.75;105194;1261;75136;-47
2023/05/01 02:41:52;;;;;;;14.50;6.50;;;;;;;1.87;75.73;101104.09;105131;1257;82387;-46
2023/05/01 02:44:22;;;;;;;13.80;7.70;;;;;;;1.85;75.78;101102.35;105106;1257;73995;-46
2023/05/01 02:46:52;;;;;;;13.70;7.10;;;;;;;1.84;75.62;101099.24;105093;1262;70721;-46
2023/05/01 02:49:21;;;;;;;15.20;7.50;;;;;;;1.82;75.53;101098.71;105084;1257;70005;-46
2023/05/01 02:51:50;;;;;;;14.30;7.00;;;;;;;1.82;75.68;101096.11;105085;1256;74854;-46
2023/05/01 02:54:18;;;;;;;16.00;7.70;;;;;;;1.83;75.83;101090.77;105100;1257;82615;-46
2023/05/01 02:56:46;;;;;;;15.10;8.00;;;;;;;1.82;75.79;101095.75;105130;1260;73132;-47
2023/05/01 02:59:15;;;;;;;15.60;8.20;;;;;;;1.78;75.87;101094.02;105193;1256;69990;-46
2023/05/01 03:01:43;;;;;;;16.10;7.90;;;;;;;1.77;75.77;101093.84;105144;1256;69975;-48
2023/05/01 03:04:12;;;;;;;12.20;7.50;;;;;;;1.77;76.01;101092.80;105187;1260;74012;-46
2023/05/01 03:06:40;;;;;;;13.20;7.90;;;;;;;1.76;75.88;101095.02;105087;1261;83240;-46
2023/05/01 03:09:09;;;;;;;13.70;7.80;;;;;;;1.73;75.99;101095.52;105173;1256;72700;-47
2023/05/01 03:11:37;;;;;;;13.80;8.30;;;;;;;1.71;76.07;101096.19;105163;1255;69865;-49
2023/05/01 03:14:05;;;;;;;15.10;8.20;;;;;;;1.70;76.04;101102.03;105168;1256;70054;-47
2023/05/01 03:16:33;;;;;;;15.40;8.00;;;;;;;1.72;76.24;101103.77;105133;1261;73836;-46
2023/05/01 03:19:01;;;;;;;13.50;7.90;;;;;;;1.70;76.19;101100.65;105161;1258;83419;-46
2023/05/01 03:21:30;;;;;;;10.70;7.30;;;;;;;1.69;76.04;101098.21;105196;1256;73893;-46
2023/05/01 03:23:59;;;;;;;12.80;7.80;;;;;;;1.68;76.19;101093.39;105148;1256;70007;-47
2023/05/01 03:26:27;;;;;;;14.20;8.30;;;;;;;1.63;76.14;101092.30;105159;1257;69976;-47
2023/05/01 03:28:55;;;;;;;14.70;7.80;;;;;;;1.62;76.24;101090.93;105269;1257;72995;-47
2023/05/01 03:31:24;;;;;;;14.60;8.10;;;;;;;1.64;76.35;101082.67;105216;1257;83587;-47
2023/05/01 03:33:53;;;;;;;13.40;7.60;;;;;;;1.65;76.45;101077.16;105164;1262;73712;-47
2023/05/01 03:36:22;;;;;;;14.50;7.80;;;;;;;1.65;76.45;101076.48;105247;1256;69948;-47
2023/05/01 03:38:51;;;;;;;13.00;7.70;;;;;;;1.63;76.55;101078.34;105273;1257;69926;-47
2023/05/01 03:41:20;;;;;;;14.30;7.80;;;;;;;1.62;76.44;101081.77;105182;1260;75061;-46
2023/05/01 03:44:11;;;;;;;15.00;8.50;;;;;;;1.61;76.60;101084.88;105093;1255;83698;-48
2023/05/01 03:46:43;;;;;;;;;;;;;;;1.61;76.59;101085.55;105176;1257;73961;-48
2023/05/01 03:49:17;;;;;;;14.80;8.80;;;;;;;1.61;76.85;101081.61;105163;1256;70406;-47
2023/05/01 03:51:47;;;;;;;14.90;9.30;;;;;;;1.61;76.96;101080.06;105154;1256;69824;-47
2023/05/01 03:54:16;;;;;;;16.10;8.80;;;;;;;1.62;77.07;101082.65;105178;1262;73502;-46
2023/05/01 03:57:10;;;;;;;17.60;8.20;;;;;;;1.63;77.25;101079.38;105059;1256;83582;-46
2023/05/01 03:59:39;;;;;;;13.50;8.20;;;;;;;1.65;77.39;101076.30;105206;1259;71819;-47
2023/05/01 04:02:07;;;;;;;14.80;8.30;;;;;;;1.66;77.31;101074.59;105193;1260;70287;-46
2023/05/01 04:04:35;;;;;;;17.20;9.00;;;;;;;1.69;77.62;101075.48;105131;1262;70085;-46
2023/05/01 04:07:04;;;;;;;14.60;8.80;;;;;;;1.77;78.08;101075.23;105089;1257;74962;-46
2023/05/01 04:09:32;;;;;;;13.20;8.30;;;;;;;1.87;78.38;101074.11;105252;1258;84636;-46
2023/05/01 04:12:04;;;;;;;15.00;8.30;;;;;;;1.91;78.31;101078.46;105105;1256;72749;-46
2023/05/01 04:14:32;;;;;;;11.60;8.00;;;;;;;1.96;78.15;101075.56;105174;1258;70076;-46
2023/05/01 04:17:01;;;;;;;13.40;8.50;;;;;;;2.02;78.45;101069.94;105239;1256;70038;-46
2023/05/01 04:19:33;;;;;;;21.40;9.10;;;;;;;2.11;78.62;101070.52;105195;1260;75070;-46
2023/05/01 04:22:02;;;;;;;11.40;7.40;;;;;;;2.18;78.86;101069.55;105226;1257;83488;-47
2023/05/01 04:24:31;;;;;;;12.90;7.80;;;;;;;2.25;79.08;101067.36;105081;1257;73804;-47
2023/05/01 04:27:00;;;;;;;11.70;7.30;;;;;;;2.31;79.14;101070.86;105168;1255;70298;-46
2023/05/01 04:29:28;;;;;;;13.10;7.60;;;;;;;2.39;79.78;101074.55;105177;1256;69906;-46
2023/05/01 04:31:57;;;;;;;16.00;7.00;;;;;;;2.47;79.57;101074.25;105196;1261;74026;-48
2023/05/01 04:34:28;;;;;;;9.70;6.40;;;;;;;2.51;79.37;101070.30;105195;1256;84634;-46
2023/05/01 04:36:56;;;;;;;;;;;;;;;2.54;79.18;101068.77;105128;1257;72665;-46
2023/05/01 04:39:24;;;;;;;14.40;7.70;;;;;;;2.58;79.51;101066.73;105072;1259;69905;-46
2023/05/01 04:41:53;;;;;;;12.40;8.00;;;;;;;2.65;79.50;101063.33;105113;1262;70024;-47
2023/05/01 04:44:21;;;;;;;15.80;8.00;;;;;;;2.74;80.15;101063.73;105164;1257;75004;-47
2023/05/01 04:46:50;;;;;;;16.50;8.80;;;;;;;2.83;80.15;101060.31;105188;1256;83414;-48
2023/05/01 04:49:21;;;;;;;14.50;7.90;;;;;;;2.94;80.42;101060.89;105182;1260;72670;-46
2023/05/01 04:51:49;;;;;;;14.60;7.70;;;;;;;3.02;79.99;101059.04;105128;1256;70453;-46
2023/05/01 04:54:18;;;;;;;14.20;8.40;;;;;;;3.11;80.36;101058.04;105125;1256;69897;-46
2023/05/01 04:56:46;;;;;;;15.30;8.40;;;;;;;3.21;80.21;101061.70;105230;1257;74540;-47
2023/05/01 04:59:16;;;;;;;15.80;8.90;;;;;;;3.31;80.64;101063.28;105245;1256;83897;-46
2023/05/01 05:01:44;;;;;;;16.50;9.30;;;;;;;3.43;80.65;101061.42;105209;1260;73925;-47
2023/05/01 05:04:13;;;;;;;15.70;9.00;;;;;;;3.55;80.76;101059.05;105148;1261;70010;-46
2023/05/01 05:06:41;;;;;;;18.80;9.70;;;;;;;3.66;80.89;101054.39;105108;1262;69999;-46
2023/05/01 05:09:14;;;;;;;16.30;10.10;;;;;;;3.78;80.96;101055.61;105222;1260;75249;-47
2023/05/01 05:11:46;;;;;;;15.40;9.40;;;;;;;3.89;80.95;101055.80;105235;1261;83087;-45
2023/05/01 05:14:21;;;;;;;19.70;10.20;;;;;;;4.01;81.38;101048.38;105153;1260;72645;-46
2023/05/01 05:16:50;;;;;;;18.20;10.10;;;;;;;4.12;81.22;101043.70;105095;1256;70039;-46
2023/05/01 05:19:19;;;;;;;16.30;9.90;;;;;;;4.21;80.93;101043.53;105257;1261;69898;-46
2023/05/01 05:21:47;;;;;;;19.20;9.70;;;;;;;4.33;80.85;101042.65;105234;1256;74898;-45
2023/05/01 05:24:16;;;;;;;17.40;9.30;;;;;;;4.44;80.65;101046.80;105207;1260;83422;-48
2023/05/01 05:26:44;;;;;;;19.00;9.70;;;;;;;4.56;80.17;101045.38;105184;1261;73479;-46
2023/05/01 05:29:13;;;;;;;17.00;10.30;;;;;;;4.68;79.91;101039.81;105252;1257;69959;-46
2023/05/01 05:31:42;;;;;;;18.60;11.20;;;;;;;4.82;79.82;101038.57;105278;1256;70055;-47
2023/05/01 05:34:11;;;;;;;18.90;11.20;;;;;;;4.98;79.62;101035.38;105316;1261;75061;-45
2023/05/01 05:36:39;;;;;;;16.90;10.80;;;;;;;5.14;79.32;101037.40;105362;1258;83814;-45
2023/05/01 05:39:08;;;;;;;21.30;11.40;;;;;;;5.26;78.87;101037.36;105236;1256;73555;-46
2023/05/01 05:41:36;;;;;;;21.20;11.40;;;;;;;5.37;78.73;101036.24;105196;1262;70370;-45
2023/05/01 05:44:04;;;;;;;18.70;11.50;;;;;;;5.49;78.13;101034.61;105303;1256;70006;-45
2023/05/01 05:46:33;;;;;;;19.70;11.50;;;;;;;5.59;77.73;101038.02;105201;1257;74801;-45
2023/05/01 05:49:01;;;;;;;20.30;12.60;;;;;;;5.68;77.52;101034.67;105458;1256;82958;-46
2023/05/01 05:51:30;;;;;;;20.20;11.50;;;;;;;5.80;77.20;101034.60;105200;1259;73748;-46
2023/05/01 05:54:00;;;;;;;19.80;11.20;;;;;;;5.91;77.06;101033.48;105454;1257;70264;-45
2023/05/01 05:56:33;;;;;;;18.70;11.10;;;;;;;6.01;76.50;101033.42;105216;1261;69989;-46
2023/05/01 05:59:05;;;;;;;18.50;11.20;;;;;;;6.11;76.38;101027.61;105243;1259;74866;-49
2023/05/01 06:01:33;;;;;;;19.20;10.90;;;;;;;6.22;76.27;101028.73;105246;1261;83371;-46
2023/05/01 06:04:02;;;;;;;20.30;10.80;;;;;;;6.33;75.91;101026.04;105280;1262;73760;-45
2023/05/01 06:06:31;;;;;;;17.90;9.70;;;;;;;6.45;76.11;101026.61;105308;1260;70088;-46
2023/05/01 06:09:01;;;;;;;16.50;9.30;;;;;;;6.58;75.68;101026.46;105235;1260;70057;-46
2023/05/01 06:11:30;;;;;;;19.50;10.90;;;;;;;6.70;75.76;101021.30;105323;1259;75039;-47
2023/05/01 06:14:01;;;;;;;17.80;10.60;;;;;;;6.83;75.36;101021.67;105416;1257;82917;-46
2023/05/01 06:16:29;;;;;;;17.30;10.20;;;;;;;6.97;75.20;101021.15;105229;1259;73910;-46
2023/05/01 06:18:58;;;;;;;15.60;9.70;;;;;;;7.12;74.76;101017.66;105129;1256;70058;-46
2023/05/01 06:21:26;;;;;;;17.50;10.40;;;;;;;7.24;74.49;101013.52;105229;1257;69905;-46
2023/05/01 06:23:54;;;;;;;15.50;8.90;;;;;;;7.35;73.60;101015.63;105428;1256;74833;-46
2023/05/01 06:26:25;;;;;;;18.00;9.80;;;;;;;7.48;73.90;101008.30;105194;1255;82810;-46
2023/05/01 06:28:55;;;;;;;17.60;10.80;;;;;;;7.63;73.57;101007.58;105266;1260;74355;-46
2023/05/01 06:31:24;;;;;;;18.00;9.20;;;;;;;7.77;73.50;101006.66;105397;1259;69999;-46
2023/05/01 06:33:54;;;;;;;16.30;9.60;;;;;;;7.92;73.39;101005.89;105363;1256;69919;-46
2023/05/01 06:36:28;;;;;;;15.60;8.40;;;;;;;8.07;73.16;101004.59;105241;1259;75614;-46
2023/05/01 06:38:56;;;;;;;16.40;7.80;;;;;;;8.21;72.18;101007.31;105199;1258;83401;-47
2023/05/01 06:41:25;;;;;;;13.00;7.80;;;;;;;8.31;71.42;101005.56;105331;1257;73476;-46
2023/05/01 06:43:54;;;;;;;15.10;8.30;;;;;;;8.42;70.83;101001.92;105379;1259;69935;-46
2023/05/01 06:46:22;;;;;;;15.40;8.30;;;;;;;8.52;70.59;101001.56;105303;1256;69989;-46
2023/05/01 06:48:51;;;;;;;14.10;8.00;;;;;;;8.63;70.52;100996.64;105327;1257;74768;-46
2023/05/01 06:51:19;;;;;;;11.80;6.90;;;;;;;8.77;70.59;100996.38;105205;1262;83492;-46
2023/05/01 06:53:47;;;;;;;12.60;7.50;;;;;;;8.88;70.45;100993.02;105363;1259;72765;-46
2023/05/01 06:56:16;;;;;;;15.30;7.40;;;;;;;9.01;69.92;100993.79;105264;1259;69936;-49
2023/05/01 06:58:44;;;;;;;14.10;6.60;;;;;;;9.12;69.58;100992.14;105317;1259;70005;-47
2023/05/01 07:01:13;;;;;;;12.20;6.10;;;;;;;9.26;68.77;100985.94;105211;1260;73699;-46
2023/05/01 07:03:41;;;;;;;11.80;5.70;;;;;;;9.38;68.71;100990.16;105338;1259;83491;-46
2023/05/01 07:06:09;;;;;;;10.00;5.50;;;;;;;9.53;68.21;100983.92;105318;1256;73581;-46
2023/05/01 07:08:37;;;;;;;11.80;5.20;;;;;;;9.67;67.72;100983.58;105209;1255;69994;-48
2023/05/01 07:11:06;;;;;;;12.90;5.60;;;;;;;9.81;67.18;100986.04;105238;1262;69813;-47
2023/05/01 07:13:34;;;;;;;10.80;5.40;;;;;;;9.95;67.08;100983.95;105292;1258;74041;-50
2023/05/01 07:16:03;;;;;;;13.70;5.80;;;;;;;10.12;66.73;100982.31;105292;1259;82755;-47
2023/05/01 07:18:31;;;;;;;9.80;4.50;;;;;;;10.24;66.33;100982.85;105247;1255;72796;-49
2023/05/01 07:20:59;;;;;;;12.30;5.50;;;;;;;10.33;65.76;100982.84;105417;1259;70012;-47
2023/05/01 07:23:27;;;;;;;9.30;5.20;;;;;;;10.41;65.36;100979.11;105265;1259;70590;-47
2023/05/01 07:25:56;;;;;;;9.40;4.60;;;;;;;10.48;64.60;100978.05;105317;1257;75108;-46
2023/05/01 07:28:24;;;;;;;7.90;4.40;;;;;;;10.54;64.05;100976.84;105262;1259;83427;-46
2023/05/01 07:30:52;;;;;;;12.80;5.20;;;;;;;10.61;63.88;100973.48;105264;1259;74365;-47
2023/05/01 07:33:22;;;;;;;8.20;4.90;;;;;;;10.71;63.68;100973.23;105265;1259;69945;-47
2023/05/01 07:35:50;;;;;;;9.70;4.40;;;;;;;10.76;63.17;100972.89;105350;1255;69881;-47
2023/05/01 07:38:19;;;;;;;9.10;4.20;;;;;;;10.80;62.70;100972.09;105343;1261;75301;-46
2023/05/01 07:40:47;;;;;;;7.30;4.10;;;;;;;10.86;62.37;100965.10;105297;1256;83499;-47
2023/05/01 07:43:15;;;;;;;6.50;4.00;;;;;;;10.91;62.11;100961.27;105471;1256;72410;-47
2023/05/01 07:45:54;;;;;;;8.20;4.00;;;;;;;11.00;61.94;100959.08;105264;1259;69945;-46
2023/05/01 07:48:24;;;;;;;9.10;4.40;;;;;;;11.17;62.23;100958.75;105208;1258;69922;-46
2023/05/01 07:50:53;;;;;;;11.30;4.00;;;;;;;11.35;61.38;100951.55;105288;1259;73980;-49
2023/05/01 07:53:21;;;;;;;7.40;3.50;;;;;;;11.46;60.46;100954.16;105547;1260;83080;-48
2023/05/01 07:55:50;;;;;;;8.80;3.50;;;;;;;11.55;59.42;100950.89;105369;1256;73660;-47
2023/05/01 07:58:18;;;;;;;7.20;3.50;;;;;;;11.67;58.45;100949.30;105431;1256;69882;-49
2023/05/01 08:00:46;;;;;;;8.60;3.50;;;;;;;11.83;58.28;100942.83;105377;1261;69977;-46
2023/05/01 08:03:14;;;;;;;7.50;3.50;;;;;;;11.99;57.87;100947.91;105277;1260;75178;-47
2023/05/01 08:05:43;;;;;;;7.10;3.00;;;;;;;12.10;57.19;100945.05;105316;1257;82533;-47
2023/05/01 08:08:18;;;;;;;9.50;3.90;;;;;;;12.22;56.59;100949.03;105255;1259;74057;-46
2023/05/01 08:10:47;;;;;;;10.20;3.20;;;;;;;12.35;56.06;100941.58;105320;1261;70358;-46
2023/05/01 08:13:15;;;;;;;7.70;3.80;;;;;;;12.47;55.94;100937.12;105491;1259;69977;-46
2023/05/01 08:15:46;;;;;;;17.90;9.00;;;;;;;12.59;55.44;100940.34;105427;1259;74265;-46
2023/05/01 08:18:19;;;;;;;10.20;5.80;;;;;;;12.67;54.90;100938.14;105442;1258;84212;-46
2023/05/01 08:20:47;;;;;;;10.70;5.20;;;;;;;12.73;54.31;100934.38;105370;1259;73832;-47
2023/05/01 08:23:16;;;;;;;9.80;4.40;;;;;;;12.81;53.86;100937.10;105258;1256;69947;-47
2023/05/01 08:25:45;;;;;;;10.10;3.20;;;;;;;12.94;54.00;100934.30;105314;1259;70098;-47
2023/05/01 08:28:13;;;;;;;5.70;3.40;;;;;;;13.13;54.15;100926.91;105304;1256;74729;-47
2023/05/01 08:30:43;;;;;;;7.80;3.20;;;;;;;13.35;53.70;100929.39;105240;1259;83347;-47
2023/05/01 08:33:11;;;;;;;9.70;4.30;;;;;;;13.49;53.04;100930.25;105307;1259;73597;-48
2023/05/01 08:35:40;;;;;;;10.10;3.80;;;;;;;13.49;52.01;100929.73;105282;1258;70114;-47
2023/05/01 08:38:10;;;;;;;10.70;3.90;;;;;;;13.49;51.63;100933.05;105312;1257;69985;-47
2023/05/01 08:40:39;;;;;;;10.60;4.30;;;;;;;13.47;51.10;100928.71;105279;1256;73930;-47
2023/05/01 08:43:08;;;;;;;12.50;4.50;;;;;;;13.45;50.83;100925.31;105280;1257;83868;-47
2023/05/01 08:45:37;;;;;;;9.50;4.30;;;;;;;13.45;50.48;100924.60;105323;1259;73174;-48
2023/05/01 08:48:06;;;;;;;11.80;5.20;;;;;;;13.49;50.37;100928.33;105346;1256;69887;-48
2023/05/01 08:50:37;;;;;;;6.90;4.30;;;;;;;13.54;50.28;100918.06;105276;1256;69989;-48
2023/05/01 08:53:07;;;;;;;7.90;3.40;;;;;;;13.60;50.37;100921.51;105267;1256;73958;-48
2023/05/01 08:55:36;;;;;;;11.30;3.80;;;;;;;13.71;50.32;100915.64;105326;1257;84365;-47
2023/05/01 08:58:06;;;;;;;8.00;4.10;;;;;;;13.78;50.03;100918.85;105229;1262;73747;-48
2023/05/01 09:00:34;;;;;;;;;;;;;;;13.80;49.40;100921.22;105139;1258;69996;-47
2023/05/01 09:03:03;;;;;;;7.70;4.20;;;;;;;13.85;49.31;100916.63;105320;1257;69989;-47
2023/05/01 09:05:32;;;;;;;7.70;4.10;;;;;;;13.97;49.37;100914.52;105161;1262;73245;-47
2023/05/01 09:08:02;;;;;;;7.50;4.70;;;;;;;14.15;49.30;100914.11;105293;1257;83469;-47
2023/05/01 09:10:32;;;;;;;11.20;4.60;;;;;;;14.28;48.79;100911.78;105301;1259;72107;-47
2023/05/01 09:13:05;;;;;;;12.40;5.10;;;;;;;14.36;48.60;100911.06;105275;1257;69999;-46
2023/05/01 09:15:34;;;;;;;8.80;5.30;;;;;;;14.45;48.27;100910.48;105298;1257;69886;-47
2023/05/01 09:18:02;;;;;;;8.50;4.70;;;;;;;14.55;48.06;100906.52;105143;1262;72849;-46
2023/05/01 09:20:31;;;;;;;11.60;5.00;;;;;;;14.73;47.89;100897.80;105184;1261;83718;-47
2023/05/01 09:22:59;;;;;;;9.70;5.70;;;;;;;15.00;47.87;100897.10;105321;1257;73854;-45
2023/05/01 09:25:28;;;;;;;10.70;6.00;;;;;;;15.13;47.34;100890.98;105247;1259;70717;-45
2023/05/01 09:27:56;;;;;;;10.80;6.50;;;;;;;15.16;46.88;100891.73;105364;1257;69926;-48
2023/05/01 09:30:35;;;;;;;10.30;5.90;;;;;;;15.12;46.51;100887.02;105371;1257;74915;-47
2023/05/01 09:33:14;;;;;;;7.80;5.00;;;;;;;15.13;46.34;100883.25;105284;1257;83897;-47
2023/05/01 09:35:49;;;;;;;8.30;5.60;;;;;;;15.25;46.45;100880.91;105282;1256;73753;-47
2023/05/01 09:38:25;;;;;;;9.10;5.60;;;;;;;15.40;46.54;100877.88;105306;1259;70038;-47
2023/05/01 09:40:55;;;;;;;10.50;5.30;;;;;;;15.55;46.28;100869.58;105275;1254;70018;-47
2023/05/01 09:43:25;;;;;;;;;;;;;;;15.62;45.86;100869.77;105304;1259;74010;-48
2023/05/01 09:46:02;;;;;;;7.50;5.00;;;;;;;15.70;45.54;100864.25;105304;1259;82422;-47
2023/05/01 09:48:31;;;;;;;10.70;5.70;;;;;;;15.80;45.59;100858.30;105283;1259;72776;-48
2023/05/01 09:51:26;;;;;;;8.90;4.90;;;;;;;15.93;45.21;100853.77;105280;1260;70057;-47
2023/05/01 09:53:56;;;;;;;8.30;4.90;;;;;;;16.13;45.23;100848.64;105270;1259;69917;-47
2023/05/01 09:56:25;;;;;;;9.80;4.80;;;;;;;16.42;45.58;100847.96;105299;1259;75180;-47
2023/05/01 09:58:57;;;;;;;8.40;5.10;;;;;;;16.69;44.59;100842.77;105298;1259;83249;-47
2023/05/01 10:01:42;;;;;;;9.60;4.40;;;;;;;16.79;43.97;100847.22;105296;1257;73443;-47
2023/05/01 10:04:12;;;;;;;9.30;4.20;;;;;;;17.05;44.07;100842.20;105284;1257;69888;-45
2023/05/01 10:06:40;;;;;;;9.10;4.20;;;;;;;17.32;43.67;100829.37;105301;1256;69907;-45
2023/05/01 10:09:15;;;;;;;7.50;3.90;;;;;;;17.70;44.02;100832.75;105322;1260;74130;-45
2023/05/01 10:11:48;;;;;;;7.30;3.90;;;;;;;18.07;43.62;100834.77;105278;1259;82152;-45
2023/05/01 10:14:16;;;;;;;10.30;4.40;;;;;;;18.39;42.80;100825.16;105172;1259;73061;-45
2023/05/01 10:16:45;;;;;;;8.90;4.20;;;;;;;18.66;42.26;100821.02;105216;1260;69894;-45
2023/05/01 10:19:16;;;;;;;9.70;4.00;;;;;;;18.94;42.01;100816.93;105290;1259;69922;-44
2023/05/01 10:21:44;;;;;;;7.30;4.10;;;;;;;19.26;41.84;100809.30;105301;1257;73927;-46
2023/05/01 10:24:14;;;;;;;7.20;4.10;;;;;;;19.53;40.89;100805.90;105135;1259;82681;-46
2023/05/01 10:26:42;;;;;;;8.30;4.30;;;;;;;19.69;40.18;100798.66;105255;1255;72836;-46
2023/05/01 10:29:11;;;;;;;10.10;3.90;;;;;;;19.71;39.78;100790.52;105324;1259;70014;-46
2023/05/01 10:31:40;;;;;;;7.50;3.80;;;;;;;19.86;39.39;100789.29;105324;1259;70072;-48
2023/05/01 10:34:10;;;;;;;;;;;;;;;20.10;39.22;100790.63;105294;1259;74963;-48
2023/05/01 10:36:46;;;;;;;6.00;3.40;;;;;;;20.50;39.06;100792.06;105275;1259;83487;-49
2023/05/01 10:39:31;;;;;;;6.90;4.20;;;;;;;20.74;38.62;100791.73;105100;1261;72872;-51
2023/05/01 10:42:10;;;;;;;7.20;3.50;;;;;;;20.94;37.88;100788.83;105283;1258;69981;-48
2023/05/01 10:44:40;;;;;;;8.60;4.30;;;;;;;21.11;37.66;100794.52;105301;1256;69843;-46
2023/05/01 10:47:41;;;;;;;5.60;3.50;;;;;;;21.24;36.99;100785.55;105245;1258;74892;-48
2023/05/01 10:50:14;;;;;;;7.00;3.40;;;;;;;21.35;36.05;100781.66;104919;1266;82504;-46
2023/05/01 10:53:11;;;;;;;7.10;3.70;;;;;;;21.41;35.94;100781.64;105193;1258;73902;-46
2023/05/01 10:55:43;;;;;;;7.60;3.50;;;;;;;21.55;35.44;100773.92;105247;1262;69944;-46
2023/05/01 10:58:13;;;;;;;6.40;3.90;;;;;;;21.70;35.53;100767.98;105186;1260;69929;-48
2023/05/01 11:00:41;;;;;;;6.70;4.10;;;;;;;21.83;35.76;100763.23;105136;1256;75038;-45
2023/05/01 11:03:21;;;;;;;7.70;3.70;;;;;;;21.94;35.73;100759.73;105064;1262;83402;-49
2023/05/01 11:05:59;;;;;;;6.50;3.70;;;;;;;22.18;35.58;100752.27;105103;1262;72594;-48
2023/05/01 11:08:32;;;;;;;5.10;3.40;;;;;;;22.34;34.96;100744.29;105065;1261;69990;-49
2023/05/01 11:11:22;;;;;;;6.10;3.60;;;;;;;22.58;35.00;100725.73;105228;1261;69986;-46
2023/05/01 11:14:00;;;;;;;7.80;3.70;;;;;;;22.76;34.50;100728.16;105089;1260;74771;-46
2023/05/01 11:16:40;;;;;;;11.50;3.70;;;;;;;22.86;34.15;100726.12;105162;1258;83916;-47
2023/05/01 11:19:21;;;;;;;6.30;3.50;;;;;;;22.99;33.98;100718.10;105111;1261;72962;-46
2023/05/01 11:21:49;;;;;;;6.20;3.10;;;;;;;22.96;33.86;100716.33;105094;1262;70226;-46
2023/05/01 11:24:18;;;;;;;8.20;3.40;;;;;;;23.20;33.64;100712.21;105063;1261;71521;-46
2023/05/01 11:26:47;;;;;;;6.30;2.60;;;;;;;23.47;33.27;100708.30;105070;1263;74153;-46
2023/05/01 11:29:16;;;;;;;8.40;3.90;;;;;;;23.64;32.79;100706.80;105088;1263;83512;-46
2023/05/01 11:31:47;;;;;;;6.50;3.80;;;;;;;23.65;32.40;100706.41;105135;1262;73812;-47
2023/05/01 11:34:16;;;;;;;7.20;3.30;;;;;;;23.69;32.13;100702.48;105094;1257;69952;-49